createdAt,value
2022-12-03T00:02:33.535Z,57128.34
2022-12-03T00:07:35.161Z,57128.34
2022-12-03T00:12:36.664Z,57128.34
2022-12-03T00:17:38.272Z,57128.34
2022-12-03T00:22:39.700Z,57128.34
2022-12-03T00:27:41.877Z,57128.34
2022-12-03T00:32:43.334Z,57128.34
2022-12-03T00:37:44.860Z,57128.34
2022-12-03T00:42:46.284Z,57128.34
2022-12-03T00:47:47.703Z,57128.34
2022-12-03T00:52:49.870Z,57128.34
2022-12-03T00:57:51.361Z,57128.34
2022-12-03T01:02:52.864Z,57128.34
2022-12-03T01:07:54.353Z,57128.34
2022-12-03T01:12:55.841Z,57128.34
2022-12-03T01:17:57.377Z,57128.34
2022-12-03T01:22:58.811Z,57128.34
2022-12-03T01:28:00.427Z,57128.34
2022-12-03T01:33:01.844Z,57128.34
2022-12-03T01:38:03.336Z,57128.34
2022-12-03T01:43:04.757Z,57128.34
2022-12-03T01:48:06.521Z,57128.34
2022-12-03T01:53:11.401Z,57128.34
2022-12-03T01:58:14.671Z,57128.34
2022-12-03T02:03:22.887Z,57128.34
2022-12-03T02:08:33.555Z,57128.34
2022-12-03T02:13:35.175Z,57128.34
2022-12-03T02:18:36.644Z,57128.34
2022-12-03T02:23:57.407Z,57128.34
2022-12-03T02:28:58.918Z,57128.34
2022-12-03T02:34:06.180Z,57128.34
2022-12-03T02:39:07.760Z,57128.34
2022-12-03T02:44:09.951Z,57128.34
2022-12-03T02:49:11.420Z,57128.34
2022-12-03T02:54:13.068Z,57128.34
2022-12-03T02:59:14.909Z,57128.34
2022-12-03T03:04:16.600Z,57128.34
2022-12-03T03:09:18.932Z,57128.34
2022-12-03T03:14:20.547Z,57128.34
2022-12-03T03:19:24.463Z,57128.34
2022-12-03T03:24:26.443Z,57128.34
2022-12-03T03:29:28.333Z,57128.34
2022-12-03T03:34:32.804Z,57128.34
2022-12-03T03:39:34.589Z,57128.34
2022-12-03T03:44:37.320Z,57128.34
2022-12-03T03:49:39.051Z,57128.34
2022-12-03T03:54:40.481Z,57128.34
2022-12-03T03:59:42.021Z,57128.34
2022-12-03T04:04:43.459Z,57128.34
2022-12-03T04:09:45.137Z,57128.34
2022-12-03T04:14:46.563Z,57128.34
2022-12-03T04:19:48.029Z,57128.34
2022-12-03T04:24:49.466Z,57128.34
2022-12-03T04:29:51.137Z,57128.34
2022-12-03T04:35:11.254Z,57128.34
2022-12-03T04:40:31.718Z,57128.34
2022-12-03T04:45:33.245Z,57128.34
2022-12-03T04:50:34.743Z,57128.34
2022-12-03T04:55:36.168Z,57128.34
2022-12-03T05:00:37.696Z,57128.34
2022-12-03T05:05:39.123Z,57128.34
2022-12-03T05:10:40.586Z,57128.34
2022-12-03T05:15:42.011Z,57128.34
2022-12-03T05:20:47.121Z,102574.78
2022-12-03T05:25:54.424Z,102367.78
2022-12-03T05:30:55.988Z,102368.56
2022-12-03T05:35:57.473Z,102371.91
2022-12-03T05:40:58.995Z,102370.50
2022-12-03T05:46:00.470Z,102364.19
2022-12-03T05:51:04.625Z,102367.53
2022-12-03T05:56:06.277Z,102362.13
2022-12-03T06:01:08.312Z,102355.94
2022-12-03T06:06:09.739Z,102358.16
2022-12-03T06:11:11.220Z,102354.28
2022-12-03T06:16:12.730Z,102358.03
2022-12-03T06:21:14.261Z,102344.13
2022-12-03T06:26:15.865Z,102349.28
2022-12-03T06:31:17.552Z,102347.97
2022-12-03T06:36:22.951Z,102346.44
2022-12-03T06:41:25.001Z,102349.66
2022-12-03T06:46:26.474Z,102348.28
2022-12-03T06:51:28.119Z,102356.00
2022-12-03T06:56:35.074Z,102354.44
2022-12-03T07:01:38.419Z,102352.88
2022-12-03T07:06:39.891Z,102356.34
2022-12-03T07:11:41.357Z,102351.44
2022-12-03T07:16:43.686Z,102350.94
2022-12-03T07:21:45.339Z,102350.53
2022-12-03T07:26:46.817Z,102363.38
2022-12-03T07:31:48.551Z,102358.91
2022-12-03T07:36:50.121Z,102361.47
2022-12-03T07:41:51.600Z,102361.34
2022-12-03T07:46:54.194Z,102360.41
2022-12-03T07:51:56.940Z,102366.19
2022-12-03T07:57:01.634Z,102360.00
2022-12-03T08:02:03.651Z,102354.88
2022-12-03T08:07:05.932Z,102351.28
2022-12-03T08:12:16.877Z,102348.97
2022-12-03T08:17:19.699Z,102347.91
2022-12-03T08:22:22.170Z,102343.69
2022-12-03T08:27:23.647Z,102336.63
2022-12-03T08:32:25.270Z,102333.81
2022-12-03T08:37:26.732Z,102332.38
2022-12-03T08:42:42.508Z,102324.28
2022-12-03T08:47:44.016Z,102339.88
2022-12-03T08:52:45.449Z,102346.06
2022-12-03T08:57:46.872Z,102354.28
2022-12-03T09:02:51.558Z,102346.81
2022-12-03T09:07:53.129Z,102336.91
2022-12-03T09:12:54.630Z,102332.28
2022-12-03T09:17:56.040Z,102325.16
2022-12-03T09:22:57.505Z,102334.06
2022-12-03T09:27:58.995Z,102325.00
2022-12-03T09:33:00.556Z,102316.97
2022-12-03T09:38:01.978Z,102319.00
2022-12-03T09:43:03.997Z,102329.31
2022-12-03T09:48:05.456Z,102321.72
2022-12-03T09:53:08.738Z,102320.44
2022-12-03T09:58:12.289Z,102314.41
2022-12-03T10:03:16.637Z,102309.75
2022-12-03T10:08:21.612Z,102308.88
2022-12-03T10:13:29.797Z,102312.13
2022-12-03T10:18:36.947Z,102305.69
2022-12-03T10:23:43.588Z,102298.34
2022-12-03T10:28:46.808Z,102285.03
2022-12-03T10:33:57.824Z,102297.66
2022-12-03T10:39:12.437Z,102293.56
2022-12-03T10:44:20.089Z,102285.25
2022-12-03T10:49:21.527Z,102280.63
2022-12-03T10:54:26.276Z,102268.25
2022-12-03T10:59:33.598Z,102274.19
2022-12-03T11:04:36.244Z,102269.44
2022-12-03T11:09:37.802Z,102266.84
2022-12-03T11:14:54.884Z,102252.44
2022-12-03T11:19:56.548Z,102255.88
2022-12-03T11:25:26.704Z,102249.00
2022-12-03T11:30:50.471Z,102242.88
2022-12-03T11:36:03.742Z,102238.03
2022-12-03T11:41:14.554Z,102239.63
2022-12-03T11:46:16.107Z,102241.16
2022-12-03T11:51:21.261Z,102221.59
2022-12-03T11:56:25.653Z,102222.00
2022-12-03T12:01:39.376Z,102210.69
2022-12-03T12:06:43.470Z,102197.78
2022-12-03T12:11:44.886Z,102192.44
2022-12-03T12:16:51.999Z,102179.16
2022-12-03T12:21:53.952Z,102183.41
2022-12-03T12:27:00.664Z,102176.44
2022-12-03T12:32:11.126Z,102171.53
2022-12-03T12:37:23.023Z,102162.59
2022-12-03T12:42:29.641Z,102174.84
2022-12-03T12:47:31.305Z,102157.16
2022-12-03T12:52:32.760Z,102157.91
2022-12-03T12:57:34.213Z,102157.19
2022-12-03T13:02:44.684Z,102151.50
2022-12-03T13:07:46.545Z,102148.44
2022-12-03T13:12:47.995Z,102145.47
2022-12-03T13:17:51.189Z,102137.22
2022-12-03T13:22:52.727Z,102141.25
2022-12-03T13:27:54.149Z,102126.78
2022-12-03T13:32:57.734Z,102125.78
2022-12-03T13:37:59.656Z,102125.38
2022-12-03T13:43:09.329Z,102119.28
2022-12-03T13:48:23.017Z,102120.22
2022-12-03T13:53:36.480Z,102112.84
2022-12-03T13:58:37.928Z,102104.31
2022-12-03T14:03:39.345Z,102103.41
2022-12-03T14:08:41.125Z,102100.47
2022-12-03T14:13:42.555Z,102111.19
2022-12-03T14:18:43.984Z,102099.88
2022-12-03T14:23:45.436Z,102103.34
2022-12-03T14:28:46.851Z,102096.38
2022-12-03T14:33:48.271Z,102104.91
2022-12-03T14:38:49.921Z,102107.75
2022-12-03T14:43:51.348Z,102099.75
2022-12-03T14:48:52.850Z,102103.09
2022-12-03T14:53:54.277Z,102100.00
2022-12-03T14:58:55.701Z,102097.19
2022-12-03T15:03:57.126Z,102101.06
2022-12-03T15:08:58.558Z,102098.13
2022-12-03T15:14:00.078Z,102100.56
2022-12-03T15:19:02.084Z,102087.81
2022-12-03T15:24:03.832Z,102081.53
2022-12-03T15:29:05.275Z,102084.63
2022-12-03T15:34:06.679Z,102089.66
2022-12-03T15:39:08.544Z,102082.06
2022-12-03T15:44:09.955Z,102080.81
2022-12-03T15:49:11.520Z,102074.63
2022-12-03T15:54:12.938Z,102068.47
2022-12-03T15:59:14.370Z,102078.53
2022-12-03T16:04:15.825Z,102065.75
2022-12-03T16:09:19.093Z,102067.69
2022-12-03T16:14:23.824Z,102073.06
2022-12-03T16:19:25.380Z,102071.78
2022-12-03T16:24:26.857Z,102079.81
2022-12-03T16:29:28.473Z,102080.09
2022-12-03T16:34:29.899Z,102083.44
2022-12-03T16:39:31.567Z,102081.75
2022-12-03T16:44:43.601Z,102087.41
2022-12-03T16:49:45.065Z,102073.78
2022-12-03T16:54:46.597Z,102074.38
2022-12-03T16:59:48.039Z,102075.97
2022-12-03T17:04:49.459Z,102075.34
2022-12-03T17:09:50.888Z,102073.03
2022-12-03T17:14:52.305Z,102069.56
2022-12-03T17:19:54.109Z,102068.94
2022-12-03T17:24:55.921Z,102083.00
2022-12-03T17:29:57.420Z,102074.28
2022-12-03T17:34:58.844Z,102074.47
2022-12-03T17:40:00.800Z,102080.13
2022-12-03T17:45:03.192Z,102063.78
2022-12-03T17:50:05.353Z,102066.50
2022-12-03T17:55:15.668Z,102066.00
2022-12-03T18:00:19.566Z,102068.03
2022-12-03T18:05:22.821Z,102059.13
2022-12-03T18:10:24.324Z,102065.47
2022-12-03T18:15:25.760Z,102072.13
2022-12-03T18:20:27.555Z,102071.25
2022-12-03T18:25:29.601Z,102063.00
2022-12-03T18:30:31.031Z,102062.09
2022-12-03T18:35:32.463Z,102065.84
2022-12-03T18:40:33.970Z,102070.72
2022-12-03T18:45:35.401Z,102065.06
2022-12-03T18:50:36.908Z,102058.38
2022-12-03T18:55:38.597Z,102061.19
2022-12-03T19:00:40.253Z,102055.28
2022-12-03T19:05:42.076Z,102050.41
2022-12-03T19:10:44.819Z,102054.25
2022-12-03T19:15:48.845Z,102059.16
2022-12-03T19:20:50.523Z,102057.88
2022-12-03T19:26:00.102Z,102052.97
2022-12-03T19:31:07.807Z,102043.56
2022-12-03T19:36:20.779Z,102053.88
2022-12-03T19:41:24.635Z,102046.16
2022-12-03T19:46:30.115Z,102055.69
2022-12-03T19:51:35.150Z,102049.38
2022-12-03T19:56:37.400Z,102051.44
2022-12-03T20:01:40.880Z,102053.50
2022-12-03T20:06:42.428Z,102060.06
2022-12-03T20:11:45.557Z,102047.09
2022-12-03T20:16:47.204Z,102058.53
2022-12-03T20:21:48.733Z,102054.94
2022-12-03T20:26:50.157Z,102046.56
2022-12-03T20:31:51.688Z,102039.38
2022-12-03T20:36:53.157Z,102035.50
2022-12-03T20:41:54.802Z,102039.38
2022-12-03T20:46:56.264Z,102040.25
2022-12-03T20:52:01.152Z,102031.66
2022-12-03T20:57:05.647Z,102036.41
2022-12-03T21:02:07.189Z,102029.34
2022-12-03T21:07:08.684Z,102021.38
2022-12-03T21:12:10.242Z,102027.03
2022-12-03T21:17:11.824Z,102042.47
2022-12-03T21:22:13.369Z,102027.03
2022-12-03T21:27:21.143Z,102030.38
2022-12-03T21:32:24.283Z,102029.59
2022-12-03T21:37:25.708Z,102035.75
2022-12-03T21:42:36.879Z,102031.28
2022-12-03T21:47:38.846Z,102032.19
2022-12-03T21:52:40.716Z,102035.13
2022-12-03T21:57:42.194Z,102033.50
2022-12-03T22:02:43.794Z,102039.53
2022-12-03T22:07:45.278Z,102031.44
2022-12-03T22:12:46.761Z,102031.19
2022-12-03T22:17:48.326Z,102031.31
2022-12-03T22:22:49.739Z,102031.19
2022-12-03T22:27:51.226Z,102024.22
2022-12-03T22:32:52.765Z,102029.88
2022-12-03T22:37:54.229Z,102014.59
2022-12-03T22:42:55.918Z,102017.19
2022-12-03T22:47:57.436Z,102020.25
2022-12-03T22:52:58.932Z,102012.94
2022-12-03T22:58:00.417Z,102008.16
2022-12-03T23:03:02.532Z,102004.84
2022-12-03T23:08:10.270Z,102013.69
2022-12-03T23:13:12.296Z,102001.25
2022-12-03T23:18:14.007Z,101999.06
2022-12-03T23:23:15.831Z,102001.75
2022-12-03T23:28:17.579Z,102002.66
2022-12-03T23:33:19.513Z,102000.59
2022-12-03T23:38:21.317Z,101991.47
2022-12-03T23:43:23.021Z,101988.78
2022-12-03T23:48:24.477Z,101986.97
2022-12-03T23:53:26.011Z,102001.63
2022-12-03T23:58:27.476Z,101993.53
